To NAV CANADA Home Page Login to a new session Search on AWWS site Feedback and Comments Disclaimer Vers la page française équivalente Tips FAQ What's new on the site To the Forecasts and Observations / NOTAM section To "File a Flight Plan" website Publications and other links Update of the User's profile FIC Telephone Numbers My Weather Data Folder Route Weather Data Regional Weather Data Local Weather Data To the Forecasts and Observations / NOTAM section
Request Generated 02/28/2015 at 15:51:56 UTC . Weather information available at that time is displayed.

METAR/TAF

ABBOTSFORD/BC    

METAR CYXX 281500Z 04010G17KT 30SM SKC 06/M10 A3020 RMK SLP228=
METAR CYXX 281400Z 04013G22KT 30SM SKC 06/M10 A3018 RMK SLP223=
METAR CYXX 281300Z 04012G22KT 15SM SKC 06/M09 A3016 RMK SLP215=

TAF CYXX 281138Z 2812/0112 03018G28KT P6SM SKC
BECMG 2813/2815 05012G22KT
FM282200 03006KT P6SM FEW250
RMK NXT FCST BY 281800Z=
Your time UTC time
Weather data provided by Environment Canada and NAV CANADA